sensor_id;sensor_type;location;lat;lon;timestamp;P1;durP1;ratioP1;P2;durP2;ratioP2
41719;SDS011;27405;53.316;-6.294;2023-04-24T00:00:06;22.67;;;12.23;;
41719;SDS011;27405;53.316;-6.294;2023-04-24T00:02:34;21.90;;;12.52;;
41719;SDS011;27405;53.316;-6.294;2023-04-24T00:05:02;24.55;;;12.25;;
41719;SDS011;27405;53.316;-6.294;2023-04-24T00:07:29;25.50;;;12.73;;
41719;SDS011;27405;53.316;-6.294;2023-04-24T00:09:55;20.95;;;11.60;;
41719;SDS011;27405;53.316;-6.294;2023-04-24T00:12:21;20.08;;;11.13;;
41719;SDS011;27405;53.316;-6.294;2023-04-24T00:14:46;26.00;;;13.43;;
41719;SDS011;27405;53.316;-6.294;2023-04-24T00:17:12;20.33;;;12.02;;
41719;SDS011;27405;53.316;-6.294;2023-04-24T00:19:38;23.98;;;13.93;;
41719;SDS011;27405;53.316;-6.294;2023-04-24T00:22:04;23.08;;;14.68;;
41719;SDS011;27405;53.316;-6.294;2023-04-24T00:24:30;24.65;;;16.23;;
41719;SDS011;27405;53.316;-6.294;2023-04-24T00:26:56;25.17;;;17.67;;
41719;SDS011;27405;53.316;-6.294;2023-04-24T00:29:22;27.52;;;19.05;;
41719;SDS011;27405;53.316;-6.294;2023-04-24T00:31:47;28.60;;;20.23;;
41719;SDS011;27405;53.316;-6.294;2023-04-24T00:34:13;28.08;;;19.67;;
41719;SDS011;27405;53.316;-6.294;2023-04-24T00:36:39;30.60;;;19.77;;
41719;SDS011;27405;53.316;-6.294;2023-04-24T00:39:05;26.73;;;17.88;;
41719;SDS011;27405;53.316;-6.294;2023-04-24T00:41:33;22.30;;;14.02;;
41719;SDS011;27405;53.316;-6.294;2023-04-24T00:44:00;23.42;;;13.85;;
41719;SDS011;27405;53.316;-6.294;2023-04-24T00:46:25;24.77;;;13.98;;
41719;SDS011;27405;53.316;-6.294;2023-04-24T00:48:51;23.23;;;12.90;;
41719;SDS011;27405;53.316;-6.294;2023-04-24T00:51:17;22.60;;;12.73;;
41719;SDS011;27405;53.316;-6.294;2023-04-24T00:53:43;23.70;;;12.93;;
41719;SDS011;27405;53.316;-6.294;2023-04-24T00:56:08;22.42;;;13.40;;
41719;SDS011;27405;53.316;-6.294;2023-04-24T00:58:35;21.33;;;12.10;;
41719;SDS011;27405;53.316;-6.294;2023-04-24T01:01:01;21.25;;;12.18;;
41719;SDS011;27405;53.316;-6.294;2023-04-24T01:03:29;22.33;;;12.43;;
41719;SDS011;27405;53.316;-6.294;2023-04-24T01:05:58;23.88;;;13.73;;
41719;SDS011;27405;53.316;-6.294;2023-04-24T01:08:24;22.85;;;12.88;;
41719;SDS011;27405;53.316;-6.294;2023-04-24T01:10:52;23.35;;;11.60;;
41719;SDS011;27405;53.316;-6.294;2023-04-24T01:13:18;23.60;;;11.43;;
41719;SDS011;27405;53.316;-6.294;2023-04-24T01:15:45;23.30;;;12.43;;
41719;SDS011;27405;53.316;-6.294;2023-04-24T01:18:11;20.02;;;11.25;;
41719;SDS011;27405;53.316;-6.294;2023-04-24T01:20:39;22.25;;;10.30;;
41719;SDS011;27405;53.316;-6.294;2023-04-24T01:23:06;23.35;;;9.60;;
41719;SDS011;27405;53.316;-6.294;2023-04-24T01:25:32;21.90;;;9.02;;
41719;SDS011;27405;53.316;-6.294;2023-04-24T01:27:58;18.13;;;8.57;;
41719;SDS011;27405;53.316;-6.294;2023-04-24T01:30:25;19.52;;;8.65;;
41719;SDS011;27405;53.316;-6.294;2023-04-24T01:32:51;22.95;;;9.30;;
41719;SDS011;27405;53.316;-6.294;2023-04-24T01:35:17;21.15;;;8.77;;
41719;SDS011;27405;53.316;-6.294;2023-04-24T01:37:43;18.35;;;8.95;;
41719;SDS011;27405;53.316;-6.294;2023-04-24T01:40:10;19.58;;;8.73;;
41719;SDS011;27405;53.316;-6.294;2023-04-24T01:42:36;19.45;;;9.18;;
41719;SDS011;27405;53.316;-6.294;2023-04-24T01:45:02;20.05;;;9.13;;
41719;SDS011;27405;53.316;-6.294;2023-04-24T01:47:29;19.58;;;8.70;;
41719;SDS011;27405;53.316;-6.294;2023-04-24T01:49:56;20.38;;;9.20;;
41719;SDS011;27405;53.316;-6.294;2023-04-24T01:52:21;17.23;;;8.10;;
41719;SDS011;27405;53.316;-6.294;2023-04-24T01:54:47;20.65;;;8.90;;
41719;SDS011;27405;53.316;-6.294;2023-04-24T01:57:13;20.70;;;9.27;;
41719;SDS011;27405;53.316;-6.294;2023-04-24T01:59:40;19.98;;;10.35;;
41719;SDS011;27405;53.316;-6.294;2023-04-24T02:02:06;22.90;;;10.57;;
41719;SDS011;27405;53.316;-6.294;2023-04-24T02:04:32;22.35;;;12.02;;
41719;SDS011;27405;53.316;-6.294;2023-04-24T02:06:57;26.85;;;12.15;;
41719;SDS011;27405;53.316;-6.294;2023-04-24T02:09:23;25.42;;;13.13;;
41719;SDS011;27405;53.316;-6.294;2023-04-24T02:11:49;21.83;;;12.73;;
41719;SDS011;27405;53.316;-6.294;2023-04-24T02:14:15;22.80;;;12.60;;
41719;SDS011;27405;53.316;-6.294;2023-04-24T02:16:41;22.17;;;12.57;;
41719;SDS011;27405;53.316;-6.294;2023-04-24T02:19:07;24.52;;;12.65;;
41719;SDS011;27405;53.316;-6.294;2023-04-24T02:21:33;20.80;;;11.52;;
41719;SDS011;27405;53.316;-6.294;2023-04-24T02:23:59;26.08;;;12.85;;
41719;SDS011;27405;53.316;-6.294;2023-04-24T02:26:24;25.02;;;12.68;;
41719;SDS011;27405;53.316;-6.294;2023-04-24T02:28:50;20.88;;;11.32;;
41719;SDS011;27405;53.316;-6.294;2023-04-24T02:31:16;23.98;;;10.63;;
41719;SDS011;27405;53.316;-6.294;2023-04-24T02:33:41;22.55;;;10.65;;
41719;SDS011;27405;53.316;-6.294;2023-04-24T02:36:07;24.02;;;11.40;;
41719;SDS011;27405;53.316;-6.294;2023-04-24T02:38:33;21.08;;;9.98;;
41719;SDS011;27405;53.316;-6.294;2023-04-24T02:40:58;20.13;;;9.45;;
41719;SDS011;27405;53.316;-6.294;2023-04-24T02:43:25;18.67;;;8.90;;
41719;SDS011;27405;53.316;-6.294;2023-04-24T02:45:51;22.98;;;9.80;;
41719;SDS011;27405;53.316;-6.294;2023-04-24T02:48:17;20.90;;;9.55;;
41719;SDS011;27405;53.316;-6.294;2023-04-24T02:50:42;21.75;;;9.30;;
41719;SDS011;27405;53.316;-6.294;2023-04-24T02:53:08;21.10;;;9.75;;
41719;SDS011;27405;53.316;-6.294;2023-04-24T02:55:33;20.35;;;10.55;;
41719;SDS011;27405;53.316;-6.294;2023-04-24T02:57:59;20.73;;;10.57;;
41719;SDS011;27405;53.316;-6.294;2023-04-24T03:00:25;19.80;;;9.95;;
41719;SDS011;27405;53.316;-6.294;2023-04-24T03:02:51;22.45;;;11.00;;
41719;SDS011;27405;53.316;-6.294;2023-04-24T03:05:16;22.25;;;10.90;;
41719;SDS011;27405;53.316;-6.294;2023-04-24T03:07:42;25.85;;;11.43;;
41719;SDS011;27405;53.316;-6.294;2023-04-24T03:10:08;22.00;;;11.10;;
41719;SDS011;27405;53.316;-6.294;2023-04-24T03:12:33;22.10;;;10.85;;
41719;SDS011;27405;53.316;-6.294;2023-04-24T03:14:59;22.25;;;11.27;;
41719;SDS011;27405;53.316;-6.294;2023-04-24T03:17:26;25.90;;;10.80;;
41719;SDS011;27405;53.316;-6.294;2023-04-24T03:19:52;26.05;;;10.88;;
41719;SDS011;27405;53.316;-6.294;2023-04-24T03:22:17;19.98;;;10.48;;
41719;SDS011;27405;53.316;-6.294;2023-04-24T03:24:43;20.20;;;10.13;;
41719;SDS011;27405;53.316;-6.294;2023-04-24T03:27:08;27.67;;;11.30;;
41719;SDS011;27405;53.316;-6.294;2023-04-24T03:29:34;20.77;;;11.05;;
41719;SDS011;27405;53.316;-6.294;2023-04-24T03:32:00;23.90;;;10.43;;
41719;SDS011;27405;53.316;-6.294;2023-04-24T03:34:25;20.67;;;9.98;;
41719;SDS011;27405;53.316;-6.294;2023-04-24T03:36:51;25.15;;;10.63;;
41719;SDS011;27405;53.316;-6.294;2023-04-24T03:39:17;23.45;;;11.23;;
41719;SDS011;27405;53.316;-6.294;2023-04-24T03:41:43;23.10;;;10.77;;
41719;SDS011;27405;53.316;-6.294;2023-04-24T03:44:09;24.15;;;11.15;;
41719;SDS011;27405;53.316;-6.294;2023-04-24T03:46:35;22.90;;;10.77;;
41719;SDS011;27405;53.316;-6.294;2023-04-24T03:49:01;27.23;;;10.30;;
41719;SDS011;27405;53.316;-6.294;2023-04-24T03:51:26;20.85;;;10.35;;
41719;SDS011;27405;53.316;-6.294;2023-04-24T03:53:53;20.48;;;10.82;;
41719;SDS011;27405;53.316;-6.294;2023-04-24T03:56:18;28.52;;;12.27;;
41719;SDS011;27405;53.316;-6.294;2023-04-24T03:58:45;25.75;;;12.75;;
41719;SDS011;27405;53.316;-6.294;2023-04-24T04:01:11;30.17;;;14.15;;
41719;SDS011;27405;53.316;-6.294;2023-04-24T04:03:37;26.58;;;14.18;;
41719;SDS011;27405;53.316;-6.294;2023-04-24T04:06:02;26.25;;;12.88;;
41719;SDS011;27405;53.316;-6.294;2023-04-24T04:08:28;24.27;;;12.90;;
41719;SDS011;27405;53.316;-6.294;2023-04-24T04:10:54;23.23;;;11.98;;
41719;SDS011;27405;53.316;-6.294;2023-04-24T04:13:20;22.77;;;10.75;;
41719;SDS011;27405;53.316;-6.294;2023-04-24T04:15:45;19.77;;;8.05;;
41719;SDS011;27405;53.316;-6.294;2023-04-24T04:18:11;17.63;;;6.78;;
41719;SDS011;27405;53.316;-6.294;2023-04-24T04:20:37;16.58;;;6.22;;
41719;SDS011;27405;53.316;-6.294;2023-04-24T04:23:02;12.30;;;5.10;;
41719;SDS011;27405;53.316;-6.294;2023-04-24T04:25:28;13.02;;;4.75;;
41719;SDS011;27405;53.316;-6.294;2023-04-24T04:27:54;11.65;;;4.82;;
41719;SDS011;27405;53.316;-6.294;2023-04-24T04:30:20;10.07;;;4.25;;
41719;SDS011;27405;53.316;-6.294;2023-04-24T04:32:46;10.95;;;4.03;;
41719;SDS011;27405;53.316;-6.294;2023-04-24T04:35:12;12.70;;;4.03;;
41719;SDS011;27405;53.316;-6.294;2023-04-24T04:37:37;14.55;;;4.65;;
41719;SDS011;27405;53.316;-6.294;2023-04-24T04:40:03;10.75;;;4.00;;
41719;SDS011;27405;53.316;-6.294;2023-04-24T04:42:32;16.67;;;5.47;;
41719;SDS011;27405;53.316;-6.294;2023-04-24T04:45:05;16.00;;;4.80;;
41719;SDS011;27405;53.316;-6.294;2023-04-24T04:47:33;10.10;;;4.57;;
41719;SDS011;27405;53.316;-6.294;2023-04-24T04:49:59;11.15;;;4.18;;
41719;SDS011;27405;53.316;-6.294;2023-04-24T04:52:25;17.15;;;6.05;;
41719;SDS011;27405;53.316;-6.294;2023-04-24T04:54:52;22.98;;;9.10;;
41719;SDS011;27405;53.316;-6.294;2023-04-24T04:57:18;26.60;;;6.60;;
41719;SDS011;27405;53.316;-6.294;2023-04-24T04:59:43;25.15;;;7.80;;
41719;SDS011;27405;53.316;-6.294;2023-04-24T05:02:09;49.25;;;6.10;;
41719;SDS011;27405;53.316;-6.294;2023-04-24T05:04:35;22.58;;;4.85;;
41719;SDS011;27405;53.316;-6.294;2023-04-24T05:07:01;24.95;;;2.92;;
41719;SDS011;27405;53.316;-6.294;2023-04-24T05:09:26;17.05;;;4.65;;
41719;SDS011;27405;53.316;-6.294;2023-04-24T05:11:54;16.83;;;3.88;;
41719;SDS011;27405;53.316;-6.294;2023-04-24T05:14:20;18.85;;;4.72;;
41719;SDS011;27405;53.316;-6.294;2023-04-24T05:16:46;23.92;;;5.30;;
41719;SDS011;27405;53.316;-6.294;2023-04-24T05:19:12;22.75;;;5.82;;
41719;SDS011;27405;53.316;-6.294;2023-04-24T05:21:39;21.27;;;4.93;;
41719;SDS011;27405;53.316;-6.294;2023-04-24T05:24:05;25.55;;;5.35;;
41719;SDS011;27405;53.316;-6.294;2023-04-24T05:26:31;24.23;;;5.50;;
41719;SDS011;27405;53.316;-6.294;2023-04-24T05:28:57;22.27;;;5.30;;
41719;SDS011;27405;53.316;-6.294;2023-04-24T05:31:22;27.98;;;5.50;;
41719;SDS011;27405;53.316;-6.294;2023-04-24T05:33:48;24.02;;;4.13;;
41719;SDS011;27405;53.316;-6.294;2023-04-24T05:36:14;24.92;;;4.80;;
41719;SDS011;27405;53.316;-6.294;2023-04-24T05:38:40;19.38;;;3.85;;
41719;SDS011;27405;53.316;-6.294;2023-04-24T05:41:05;19.98;;;4.10;;
41719;SDS011;27405;53.316;-6.294;2023-04-24T05:43:31;29.00;;;5.60;;
41719;SDS011;27405;53.316;-6.294;2023-04-24T05:45:56;27.98;;;5.25;;
41719;SDS011;27405;53.316;-6.294;2023-04-24T05:48:22;23.00;;;4.80;;
41719;SDS011;27405;53.316;-6.294;2023-04-24T05:50:48;18.17;;;3.63;;
41719;SDS011;27405;53.316;-6.294;2023-04-24T05:53:14;22.10;;;3.97;;
41719;SDS011;27405;53.316;-6.294;2023-04-24T05:55:39;25.27;;;4.07;;
41719;SDS011;27405;53.316;-6.294;2023-04-24T05:58:05;16.15;;;3.25;;
41719;SDS011;27405;53.316;-6.294;2023-04-24T06:00:31;19.63;;;4.05;;
41719;SDS011;27405;53.316;-6.294;2023-04-24T06:02:59;22.45;;;4.35;;
41719;SDS011;27405;53.316;-6.294;2023-04-24T06:05:25;20.40;;;4.35;;
41719;SDS011;27405;53.316;-6.294;2023-04-24T06:07:51;22.98;;;3.72;;
41719;SDS011;27405;53.316;-6.294;2023-04-24T06:10:17;12.90;;;3.35;;
41719;SDS011;27405;53.316;-6.294;2023-04-24T06:12:43;16.25;;;3.55;;
41719;SDS011;27405;53.316;-6.294;2023-04-24T06:15:08;15.50;;;3.53;;
41719;SDS011;27405;53.316;-6.294;2023-04-24T06:17:35;21.83;;;3.70;;
41719;SDS011;27405;53.316;-6.294;2023-04-24T06:20:00;19.05;;;4.45;;
41719;SDS011;27405;53.316;-6.294;2023-04-24T06:22:26;18.10;;;3.97;;
41719;SDS011;27405;53.316;-6.294;2023-04-24T06:24:52;16.63;;;3.40;;
41719;SDS011;27405;53.316;-6.294;2023-04-24T06:27:17;17.02;;;3.72;;
41719;SDS011;27405;53.316;-6.294;2023-04-24T06:29:43;24.10;;;5.43;;
41719;SDS011;27405;53.316;-6.294;2023-04-24T06:32:09;23.08;;;5.57;;
41719;SDS011;27405;53.316;-6.294;2023-04-24T06:34:34;17.52;;;4.10;;
41719;SDS011;27405;53.316;-6.294;2023-04-24T06:37:01;16.33;;;3.78;;
41719;SDS011;27405;53.316;-6.294;2023-04-24T06:39:27;14.50;;;3.50;;
41719;SDS011;27405;53.316;-6.294;2023-04-24T06:41:53;16.48;;;3.50;;
41719;SDS011;27405;53.316;-6.294;2023-04-24T06:44:18;12.60;;;4.05;;
41719;SDS011;27405;53.316;-6.294;2023-04-24T06:46:44;13.27;;;2.90;;
41719;SDS011;27405;53.316;-6.294;2023-04-24T06:49:10;13.90;;;3.63;;
41719;SDS011;27405;53.316;-6.294;2023-04-24T06:51:36;14.23;;;3.50;;
41719;SDS011;27405;53.316;-6.294;2023-04-24T06:54:01;15.93;;;3.67;;
41719;SDS011;27405;53.316;-6.294;2023-04-24T06:56:27;13.45;;;2.55;;
41719;SDS011;27405;53.316;-6.294;2023-04-24T06:58:54;8.45;;;2.33;;
41719;SDS011;27405;53.316;-6.294;2023-04-24T07:01:19;12.20;;;3.05;;
41719;SDS011;27405;53.316;-6.294;2023-04-24T07:03:45;8.70;;;2.60;;
41719;SDS011;27405;53.316;-6.294;2023-04-24T07:06:11;11.43;;;3.10;;
41719;SDS011;27405;53.316;-6.294;2023-04-24T07:08:37;8.65;;;2.45;;
41719;SDS011;27405;53.316;-6.294;2023-04-24T07:11:03;11.98;;;2.85;;
41719;SDS011;27405;53.316;-6.294;2023-04-24T07:13:29;11.18;;;3.10;;
41719;SDS011;27405;53.316;-6.294;2023-04-24T07:15:55;13.48;;;3.13;;
41719;SDS011;27405;53.316;-6.294;2023-04-24T07:18:21;9.50;;;2.55;;
41719;SDS011;27405;53.316;-6.294;2023-04-24T07:20:47;13.43;;;3.28;;
41719;SDS011;27405;53.316;-6.294;2023-04-24T07:23:15;14.50;;;3.40;;
41719;SDS011;27405;53.316;-6.294;2023-04-24T07:25:41;18.58;;;4.13;;
41719;SDS011;27405;53.316;-6.294;2023-04-24T07:28:07;14.27;;;4.40;;
41719;SDS011;27405;53.316;-6.294;2023-04-24T07:30:33;16.17;;;4.75;;
41719;SDS011;27405;53.316;-6.294;2023-04-24T07:32:59;17.20;;;4.97;;
41719;SDS011;27405;53.316;-6.294;2023-04-24T07:35:25;21.20;;;5.88;;
41719;SDS011;27405;53.316;-6.294;2023-04-24T07:37:52;21.13;;;5.70;;
41719;SDS011;27405;53.316;-6.294;2023-04-24T07:40:18;18.27;;;5.43;;
41719;SDS011;27405;53.316;-6.294;2023-04-24T07:42:44;16.75;;;4.75;;
41719;SDS011;27405;53.316;-6.294;2023-04-24T07:45:10;18.15;;;4.85;;
41719;SDS011;27405;53.316;-6.294;2023-04-24T07:47:35;16.55;;;4.20;;
41719;SDS011;27405;53.316;-6.294;2023-04-24T07:50:03;16.55;;;3.50;;
41719;SDS011;27405;53.316;-6.294;2023-04-24T07:52:29;20.17;;;3.72;;
41719;SDS011;27405;53.316;-6.294;2023-04-24T07:54:55;12.98;;;3.53;;
41719;SDS011;27405;53.316;-6.294;2023-04-24T07:57:24;13.67;;;3.53;;
41719;SDS011;27405;53.316;-6.294;2023-04-24T07:59:50;14.38;;;3.55;;
41719;SDS011;27405;53.316;-6.294;2023-04-24T08:02:16;19.40;;;3.17;;
41719;SDS011;27405;53.316;-6.294;2023-04-24T08:04:42;16.63;;;4.00;;
41719;SDS011;27405;53.316;-6.294;2023-04-24T08:07:08;15.32;;;3.70;;
41719;SDS011;27405;53.316;-6.294;2023-04-24T08:09:33;13.40;;;3.25;;
41719;SDS011;27405;53.316;-6.294;2023-04-24T08:11:59;14.68;;;3.65;;
41719;SDS011;27405;53.316;-6.294;2023-04-24T08:14:26;17.50;;;3.45;;
41719;SDS011;27405;53.316;-6.294;2023-04-24T08:16:53;14.73;;;4.22;;
41719;SDS011;27405;53.316;-6.294;2023-04-24T08:21:46;12.13;;;3.05;;
41719;SDS011;27405;53.316;-6.294;2023-04-24T08:24:12;18.05;;;3.22;;
41719;SDS011;27405;53.316;-6.294;2023-04-24T08:26:37;15.00;;;3.63;;
41719;SDS011;27405;53.316;-6.294;2023-04-24T08:29:04;18.55;;;4.00;;
41719;SDS011;27405;53.316;-6.294;2023-04-24T08:31:31;13.60;;;3.78;;
41719;SDS011;27405;53.316;-6.294;2023-04-24T08:33:57;17.00;;;3.80;;
41719;SDS011;27405;53.316;-6.294;2023-04-24T08:36:23;14.32;;;3.25;;
41719;SDS011;27405;53.316;-6.294;2023-04-24T08:38:49;14.23;;;3.50;;
41719;SDS011;27405;53.316;-6.294;2023-04-24T08:41:15;14.57;;;3.65;;
41719;SDS011;27405;53.316;-6.294;2023-04-24T08:43:42;12.82;;;3.50;;
41719;SDS011;27405;53.316;-6.294;2023-04-24T08:46:11;17.77;;;3.90;;
41719;SDS011;27405;53.316;-6.294;2023-04-24T08:48:38;20.10;;;4.05;;
41719;SDS011;27405;53.316;-6.294;2023-04-24T08:51:06;14.10;;;3.15;;
41719;SDS011;27405;53.316;-6.294;2023-04-24T08:53:33;21.42;;;4.07;;
41719;SDS011;27405;53.316;-6.294;2023-04-24T08:55:59;12.45;;;2.90;;
41719;SDS011;27405;53.316;-6.294;2023-04-24T08:58:27;9.50;;;2.40;;
41719;SDS011;27405;53.316;-6.294;2023-04-24T09:00:56;9.73;;;2.67;;
41719;SDS011;27405;53.316;-6.294;2023-04-24T09:03:23;14.38;;;3.30;;
41719;SDS011;27405;53.316;-6.294;2023-04-24T09:05:49;12.85;;;2.38;;
41719;SDS011;27405;53.316;-6.294;2023-04-24T09:08:20;10.43;;;2.92;;
41719;SDS011;27405;53.316;-6.294;2023-04-24T09:10:48;12.52;;;3.13;;
41719;SDS011;27405;53.316;-6.294;2023-04-24T09:13:14;9.57;;;2.63;;
41719;SDS011;27405;53.316;-6.294;2023-04-24T09:15:40;14.02;;;3.60;;
41719;SDS011;27405;53.316;-6.294;2023-04-24T09:18:07;15.13;;;3.53;;
41719;SDS011;27405;53.316;-6.294;2023-04-24T09:20:33;17.77;;;3.03;;
41719;SDS011;27405;53.316;-6.294;2023-04-24T09:23:01;12.95;;;3.70;;
41719;SDS011;27405;53.316;-6.294;2023-04-24T09:25:33;11.23;;;3.55;;
41719;SDS011;27405;53.316;-6.294;2023-04-24T09:28:03;13.48;;;3.25;;
41719;SDS011;27405;53.316;-6.294;2023-04-24T09:30:30;11.13;;;2.80;;
41719;SDS011;27405;53.316;-6.294;2023-04-24T09:33:15;17.25;;;2.92;;
41719;SDS011;27405;53.316;-6.294;2023-04-24T09:35:50;16.38;;;3.08;;
41719;SDS011;27405;53.316;-6.294;2023-04-24T09:38:17;13.55;;;3.05;;
41719;SDS011;27405;53.316;-6.294;2023-04-24T09:40:43;10.73;;;2.70;;
41719;SDS011;27405;53.316;-6.294;2023-04-24T09:43:12;11.32;;;2.95;;
41719;SDS011;27405;53.316;-6.294;2023-04-24T09:45:38;12.45;;;2.70;;
41719;SDS011;27405;53.316;-6.294;2023-04-24T09:48:04;8.85;;;2.65;;
41719;SDS011;27405;53.316;-6.294;2023-04-24T09:50:33;10.18;;;3.20;;
41719;SDS011;27405;53.316;-6.294;2023-04-24T09:53:03;14.50;;;2.92;;
41719;SDS011;27405;53.316;-6.294;2023-04-24T09:55:30;13.52;;;3.17;;
41719;SDS011;27405;53.316;-6.294;2023-04-24T09:58:00;9.82;;;2.95;;
41719;SDS011;27405;53.316;-6.294;2023-04-24T10:00:29;11.60;;;2.92;;
41719;SDS011;27405;53.316;-6.294;2023-04-24T10:03:03;12.63;;;3.30;;
41719;SDS011;27405;53.316;-6.294;2023-04-24T10:05:31;13.30;;;3.00;;
41719;SDS011;27405;53.316;-6.294;2023-04-24T10:08:00;12.20;;;3.10;;
41719;SDS011;27405;53.316;-6.294;2023-04-24T10:10:28;11.35;;;2.60;;
41719;SDS011;27405;53.316;-6.294;2023-04-24T10:12:54;12.18;;;2.95;;
41719;SDS011;27405;53.316;-6.294;2023-04-24T10:15:20;10.88;;;3.00;;
41719;SDS011;27405;53.316;-6.294;2023-04-24T10:17:50;8.88;;;2.35;;
41719;SDS011;27405;53.316;-6.294;2023-04-24T10:20:22;7.68;;;2.53;;
41719;SDS011;27405;53.316;-6.294;2023-04-24T10:22:50;15.05;;;3.45;;
41719;SDS011;27405;53.316;-6.294;2023-04-24T10:25:22;12.23;;;3.35;;
41719;SDS011;27405;53.316;-6.294;2023-04-24T10:27:49;9.77;;;2.85;;
41719;SDS011;27405;53.316;-6.294;2023-04-24T10:30:17;13.73;;;3.17;;
41719;SDS011;27405;53.316;-6.294;2023-04-24T10:32:44;12.23;;;3.00;;
41719;SDS011;27405;53.316;-6.294;2023-04-24T10:35:14;16.90;;;3.00;;
41719;SDS011;27405;53.316;-6.294;2023-04-24T10:37:42;14.13;;;2.72;;
41719;SDS011;27405;53.316;-6.294;2023-04-24T10:40:11;11.13;;;2.88;;
41719;SDS011;27405;53.316;-6.294;2023-04-24T10:42:41;14.80;;;3.00;;
41719;SDS011;27405;53.316;-6.294;2023-04-24T10:45:15;12.40;;;2.90;;
41719;SDS011;27405;53.316;-6.294;2023-04-24T10:47:50;9.82;;;2.97;;
41719;SDS011;27405;53.316;-6.294;2023-04-24T10:50:17;10.57;;;2.83;;
41719;SDS011;27405;53.316;-6.294;2023-04-24T10:52:46;8.43;;;3.10;;
41719;SDS011;27405;53.316;-6.294;2023-04-24T10:55:13;9.77;;;3.17;;
41719;SDS011;27405;53.316;-6.294;2023-04-24T10:57:40;10.70;;;2.70;;
41719;SDS011;27405;53.316;-6.294;2023-04-24T11:00:26;13.02;;;3.40;;
41719;SDS011;27405;53.316;-6.294;2023-04-24T11:02:52;15.35;;;3.40;;
41719;SDS011;27405;53.316;-6.294;2023-04-24T11:05:19;8.02;;;2.33;;
41719;SDS011;27405;53.316;-6.294;2023-04-24T11:10:39;4.95;;;2.20;;
41719;SDS011;27405;53.316;-6.294;2023-04-24T11:13:09;10.10;;;2.33;;
41719;SDS011;27405;53.316;-6.294;2023-04-24T11:15:35;12.32;;;2.70;;
41719;SDS011;27405;53.316;-6.294;2023-04-24T11:18:00;10.35;;;2.88;;
41719;SDS011;27405;53.316;-6.294;2023-04-24T11:20:26;11.50;;;2.78;;
41719;SDS011;27405;53.316;-6.294;2023-04-24T11:22:53;11.82;;;3.13;;
41719;SDS011;27405;53.316;-6.294;2023-04-24T11:25:20;13.40;;;3.08;;
41719;SDS011;27405;53.316;-6.294;2023-04-24T11:27:47;11.65;;;2.40;;
41719;SDS011;27405;53.316;-6.294;2023-04-24T11:30:18;10.43;;;2.60;;
41719;SDS011;27405;53.316;-6.294;2023-04-24T11:32:47;10.82;;;2.83;;
41719;SDS011;27405;53.316;-6.294;2023-04-24T11:35:19;15.00;;;2.80;;
41719;SDS011;27405;53.316;-6.294;2023-04-24T11:37:47;12.93;;;2.70;;
41719;SDS011;27405;53.316;-6.294;2023-04-24T11:40:14;13.52;;;3.25;;
41719;SDS011;27405;53.316;-6.294;2023-04-24T11:42:42;11.02;;;2.80;;
41719;SDS011;27405;53.316;-6.294;2023-04-24T11:45:10;12.65;;;3.30;;
41719;SDS011;27405;53.316;-6.294;2023-04-24T11:47:44;12.73;;;2.92;;
41719;SDS011;27405;53.316;-6.294;2023-04-24T11:50:11;16.13;;;3.08;;
41719;SDS011;27405;53.316;-6.294;2023-04-24T11:52:39;15.02;;;3.20;;
41719;SDS011;27405;53.316;-6.294;2023-04-24T11:55:07;16.65;;;2.60;;
41719;SDS011;27405;53.316;-6.294;2023-04-24T11:57:39;12.77;;;2.85;;
41719;SDS011;27405;53.316;-6.294;2023-04-24T12:00:14;9.02;;;2.70;;
41719;SDS011;27405;53.316;-6.294;2023-04-24T12:03:09;13.88;;;2.78;;
41719;SDS011;27405;53.316;-6.294;2023-04-24T12:05:36;11.65;;;2.58;;
41719;SDS011;27405;53.316;-6.294;2023-04-24T12:08:03;14.30;;;2.90;;
41719;SDS011;27405;53.316;-6.294;2023-04-24T12:10:30;14.65;;;2.72;;
41719;SDS011;27405;53.316;-6.294;2023-04-24T12:12:58;13.75;;;2.95;;
41719;SDS011;27405;53.316;-6.294;2023-04-24T12:15:25;13.43;;;2.65;;
41719;SDS011;27405;53.316;-6.294;2023-04-24T12:17:51;8.52;;;2.53;;
41719;SDS011;27405;53.316;-6.294;2023-04-24T12:20:23;10.18;;;3.60;;
41719;SDS011;27405;53.316;-6.294;2023-04-24T12:22:59;12.32;;;2.50;;
41719;SDS011;27405;53.316;-6.294;2023-04-24T12:25:26;17.15;;;2.70;;
41719;SDS011;27405;53.316;-6.294;2023-04-24T12:27:54;20.90;;;3.85;;
41719;SDS011;27405;53.316;-6.294;2023-04-24T12:30:38;10.38;;;2.70;;
41719;SDS011;27405;53.316;-6.294;2023-04-24T12:33:06;17.02;;;3.08;;
41719;SDS011;27405;53.316;-6.294;2023-04-24T12:35:32;12.07;;;2.83;;
41719;SDS011;27405;53.316;-6.294;2023-04-24T12:38:13;14.18;;;2.58;;
41719;SDS011;27405;53.316;-6.294;2023-04-24T12:40:41;13.20;;;2.90;;
41719;SDS011;27405;53.316;-6.294;2023-04-24T12:45:39;14.63;;;3.10;;
41719;SDS011;27405;53.316;-6.294;2023-04-24T12:48:04;16.23;;;3.50;;
41719;SDS011;27405;53.316;-6.294;2023-04-24T12:50:30;17.40;;;4.00;;
41719;SDS011;27405;53.316;-6.294;2023-04-24T12:52:56;16.83;;;3.17;;
41719;SDS011;27405;53.316;-6.294;2023-04-24T12:55:21;12.70;;;2.97;;
41719;SDS011;27405;53.316;-6.294;2023-04-24T12:57:47;9.32;;;2.60;;
41719;SDS011;27405;53.316;-6.294;2023-04-24T13:00:13;13.95;;;2.65;;
41719;SDS011;27405;53.316;-6.294;2023-04-24T13:02:39;14.48;;;2.55;;
41719;SDS011;27405;53.316;-6.294;2023-04-24T13:05:05;8.98;;;2.42;;
41719;SDS011;27405;53.316;-6.294;2023-04-24T13:07:31;12.65;;;2.67;;
41719;SDS011;27405;53.316;-6.294;2023-04-24T13:09:57;12.07;;;2.63;;
41719;SDS011;27405;53.316;-6.294;2023-04-24T13:12:23;12.40;;;2.42;;
41719;SDS011;27405;53.316;-6.294;2023-04-24T13:14:50;8.60;;;2.22;;
41719;SDS011;27405;53.316;-6.294;2023-04-24T13:17:16;18.20;;;2.88;;
41719;SDS011;27405;53.316;-6.294;2023-04-24T13:19:42;12.20;;;2.20;;
41719;SDS011;27405;53.316;-6.294;2023-04-24T13:22:09;7.80;;;2.40;;
41719;SDS011;27405;53.316;-6.294;2023-04-24T13:24:36;9.82;;;2.60;;
41719;SDS011;27405;53.316;-6.294;2023-04-24T13:27:02;12.77;;;3.20;;
41719;SDS011;27405;53.316;-6.294;2023-04-24T13:29:28;13.50;;;2.88;;
41719;SDS011;27405;53.316;-6.294;2023-04-24T13:31:54;10.05;;;2.40;;
41719;SDS011;27405;53.316;-6.294;2023-04-24T13:34:23;13.38;;;2.60;;
41719;SDS011;27405;53.316;-6.294;2023-04-24T13:36:53;12.45;;;2.85;;
41719;SDS011;27405;53.316;-6.294;2023-04-24T13:39:20;10.20;;;2.65;;
41719;SDS011;27405;53.316;-6.294;2023-04-24T13:41:47;11.38;;;2.58;;
41719;SDS011;27405;53.316;-6.294;2023-04-24T13:44:13;11.63;;;2.38;;
41719;SDS011;27405;53.316;-6.294;2023-04-24T13:46:40;13.50;;;2.50;;
41719;SDS011;27405;53.316;-6.294;2023-04-24T13:49:06;13.52;;;2.40;;
41719;SDS011;27405;53.316;-6.294;2023-04-24T13:51:32;13.48;;;2.67;;
41719;SDS011;27405;53.316;-6.294;2023-04-24T13:53:57;12.25;;;2.80;;
41719;SDS011;27405;53.316;-6.294;2023-04-24T13:56:24;13.25;;;2.63;;
41719;SDS011;27405;53.316;-6.294;2023-04-24T13:58:50;11.35;;;2.47;;
41719;SDS011;27405;53.316;-6.294;2023-04-24T14:01:16;13.18;;;2.83;;
41719;SDS011;27405;53.316;-6.294;2023-04-24T14:03:42;10.85;;;2.40;;
41719;SDS011;27405;53.316;-6.294;2023-04-24T14:06:10;15.63;;;2.50;;
41719;SDS011;27405;53.316;-6.294;2023-04-24T14:08:36;8.32;;;2.40;;
41719;SDS011;27405;53.316;-6.294;2023-04-24T14:11:02;9.82;;;2.45;;
41719;SDS011;27405;53.316;-6.294;2023-04-24T14:13:27;12.38;;;3.20;;
41719;SDS011;27405;53.316;-6.294;2023-04-24T14:15:53;10.35;;;2.50;;
41719;SDS011;27405;53.316;-6.294;2023-04-24T14:18:19;7.47;;;2.22;;
41719;SDS011;27405;53.316;-6.294;2023-04-24T14:20:45;10.80;;;2.67;;
41719;SDS011;27405;53.316;-6.294;2023-04-24T14:23:11;15.32;;;2.83;;